Messwerte Malindi

Temperatur

Temperatur
°C
1606564800 15.00 15.00 29
1606568400 16.00 16.00 29
1606572000 17.00 17.00 29
1606575600 18.00 18.00 28
1606579200 19.00 19.00 28
1606582800 20.00 20.00 28
1606586400 21.00 21.00 27
1606590000 22.00 22.00 27
1606593600 23.00 23.00
1606597200 0.00 0.00 27
1606600800 1.00 1.00 27
1606604400 2.00 2.00
1606608000 3.00 3.00 26
1606611600 4.00 4.00
1606615200 5.00 5.00
1606618800 6.00 6.00 25
1606622400 7.00 7.00 25
1606626000 8.00 8.00 26
1606629600 9.00 9.00 29
1606633200 10.00 10.00 31
1606636800 11.00 11.00 31
1606640400 12.00 12.00 32
1606644000 13.00 13.00 31
1606647600 14.00 14.00 31

Aktuellste Messwerte

Wettercharakter
Wetter: recht sonnig
Temperatur
30 °C
Feuchtigkeit
65 %
Wind
20 km/hWindrichtung: Ost
Luftdruck
1009 hPa
Messzeit: 29. November 2020, 15.00Datenquelle: METAR

Weitere Messstationen in der Nähe

Messstation Temperatur Entfernung
Kilimanjaro Flughafen 29 °C 337 km
Sansibar 31 °C 346 km
Arusha 26 °C 386 km
Daressalam 29 °C 417 km
Nairobi 20 °C 422 km
Morogoro 28 °C 483 km

Wind

Windrichtung Böen Mittelwind
° km/h km/h
1606564800 15.00 14.00 - 15.00 150° 20
1606568400 16.00 15.00 - 16.00 120° 10
1606572000 17.00 16.00 - 17.00 130° 15
1606575600 18.00 17.00 - 18.00 110° 10
1606579200 19.00 18.00 - 19.00 0
1606582800 20.00 19.00 - 20.00 0
1606586400 21.00 20.00 - 21.00 0
1606590000 22.00 21.00 - 22.00 0
1606593600 23.00 22.00 - 23.00
1606597200 0.00 23.00 - 0.00 0
1606600800 1.00 0.00 - 1.00 0
1606604400 2.00 1.00 - 2.00
1606608000 3.00 2.00 - 3.00 0
1606611600 4.00 3.00 - 4.00
1606615200 5.00 4.00 - 5.00
1606618800 6.00 5.00 - 6.00 0
1606622400 7.00 6.00 - 7.00 0
1606626000 8.00 7.00 - 8.00 0
1606629600 9.00 8.00 - 9.00 0
1606633200 10.00 9.00 - 10.00 0
1606636800 11.00 10.00 - 11.00 60° 20
1606640400 12.00 11.00 - 12.00 80° 20
1606644000 13.00 12.00 - 13.00 70° 20
1606647600 14.00 13.00 - 14.00 90° 20

Ihre Wetterstation

Fehlt Ihre Wetterstation auf unserem Portal?

Schreiben Sie an network@meteonews.ch

Klima

Wann ist es am wärmsten? Wann regnet es am wenigsten? Unsere Klimadaten geben Auskunft.